Grover, CO (80729)

7:45 AM MDT on August 24, 2016 (GMT -0600)
Rd 106&83 - 9 miles NE of Briggsdale | | Change Station

Elev 5038 ft 40.76 °N, 104.28 °W | Updated 9 seconds ago

Overcast
Overcast
62.5 °F
Feels Like 62.5 °F
N
9.0
Wind Variable Wind from SE
Gusts 12.0 mph

Today
High -- | Low -- °F
--% Chance of Precip.
Yesterday
High -- | Low -- °F
Precip. -- in
Pressure 30.23 in
Visibility 10.0 miles
Clouds Overcast 8500 ft
Dew Point 38 °F
Humidity 40%
Rainfall 0.00 in
Snow Depth Not available.
6:15 AM 7:40 PM
Waning Gibbous, 57% visible
METAR K82V 241335Z AUTO 28005KT 10SM -RA OVC085 16/03 A3023 RMK AO2
Pressure 30.23 in
Visibility 10.0 miles
Clouds Overcast 8500 ft
Dew Point 38 °F
Humidity 40%
Rainfall 0.00 in
Snow Depth Not available.
6:15 AM 7:40 PM
Waning Gibbous, 57% visible
METAR K82V 241335Z AUTO 28005KT 10SM -RA OVC085 16/03 A3023 RMK AO2

10-Day Weather Forecast

Almanac

Astronomy

Aug. 24, 2016 Rise Set
Actual Time
Civil Twilight
Nautical Twilight
Astronomical Twilight
Moon
Length of Visible Light
Length of Day
Tomorrow will be .
, % of the Moon is Illuminated

Today's Extremes

State Highs State Lows

Community

WunderPhotos

Upload Photos

1,934,598 photos uploaded!

WunderBlog® & News

Nearby

Air Quality

  Air Quality AQ Index Pollutant
Not available.

Snow Depth

Station Depth Elevation

Earthquake Activity

City Distance Mag. Time & Date
Minimum magnitude displayed is 2.5.

Coastal Water Temperatures

Place Temperature

Stations

Nearby Weather Stations

Station Location Temp. Windchill Dew Point Humidity Wind Precip. Elev Updated Type
                   

Watches & Warnings

There are currently no watches in effect.